Time;durP1;ratioP1;P1;durP2;ratioP2;P2;SDS_P1;SDS_P2;PMS_P1;PMS_P2;Temp;Humidity;BMP_temperature;BMP_pressure;BME280_temperature;BME280_humidity;BME280_pressure;Samples;Min_cycle;Max_cycle;Signal;HPM_P1;HPM_P2
2022/05/04 00:00:42;;;;;;;9.05;3.13;;;;;;;;;;5049527;28;20085;-66
2022/05/04 00:03:09;;;;;;;16.45;3.63;;;;;;;;;;5058082;28;20152;-66
2022/05/04 00:05:36;;;;;;;14.30;3.78;;;;;;;;;;5050988;28;20077;-66
2022/05/04 00:08:02;;;;;;;17.05;3.75;;;;;;;;;;5068647;28;20139;-66
2022/05/04 00:10:30;;;;;;;10.52;3.00;;;;;;;;;;5069653;28;20130;-66
2022/05/04 00:13:00;;;;;;;15.63;3.17;;;;;;;;;;5067206;28;20107;-66
2022/05/04 00:15:26;;;;;;;9.93;2.67;;;;;;;;;;5067510;28;20551;-66
2022/05/04 00:17:52;;;;;;;10.93;2.90;;;;;;;;;;5050101;28;20060;-66
2022/05/04 00:20:19;;;;;;;10.70;3.08;;;;;;;;;;5049209;28;20646;-66
2022/05/04 00:22:45;;;;;;;14.07;3.20;;;;;;;;;;5056173;28;20081;-66
2022/05/04 00:25:12;;;;;;;13.95;3.75;;;;;;;;;;5048433;28;20089;-66
2022/05/04 00:27:39;;;;;;;10.93;3.78;;;;;;;;;;5065831;28;20088;-66
2022/05/04 00:30:06;;;;;;;8.40;2.85;;;;;;;;;;5069457;28;20142;-66
2022/05/04 00:32:33;;;;;;;9.70;3.38;;;;;;;;;;5065147;28;20140;-66
2022/05/04 00:34:59;;;;;;;13.55;3.20;;;;;;;;;;5050400;28;20072;-66
2022/05/04 00:37:25;;;;;;;9.30;3.03;;;;;;;;;;5060913;28;20145;-66
2022/05/04 00:39:52;;;;;;;11.80;2.90;;;;;;;;;;5065939;28;20111;-66
2022/05/04 00:42:19;;;;;;;14.82;3.60;;;;;;;;;;5067173;28;20057;-66
2022/05/04 00:44:49;;;;;;;10.90;3.20;;;;;;;;;;5068709;28;20653;-66
2022/05/04 00:47:16;;;;;;;9.93;2.92;;;;;;;;;;5063613;28;20669;-66
2022/05/04 00:49:43;;;;;;;12.25;3.17;;;;;;;;;;5068747;28;20091;-66
2022/05/04 00:52:11;;;;;;;13.23;3.23;;;;;;;;;;5063228;28;20085;-66
2022/05/04 00:54:37;;;;;;;11.77;3.03;;;;;;;;;;5066679;28;20053;-66
2022/05/04 00:57:04;;;;;;;8.82;3.22;;;;;;;;;;5059143;28;20144;-66
2022/05/04 00:59:31;;;;;;;12.07;3.00;;;;;;;;;;5048848;28;20084;-66
2022/05/04 01:01:58;;;;;;;12.52;3.40;;;;;;;;;;5049505;28;20139;-66
2022/05/04 01:04:25;;;;;;;11.23;3.22;;;;;;;;;;5047993;28;20045;-66
2022/05/04 01:06:51;;;;;;;14.43;3.63;;;;;;;;;;5049054;28;20127;-66
2022/05/04 01:09:17;;;;;;;10.68;3.40;;;;;;;;;;5047866;28;20211;-66
2022/05/04 01:11:43;;;;;;;12.90;3.05;;;;;;;;;;5048018;28;20111;-66
2022/05/04 01:14:14;;;;;;;11.50;3.13;;;;;;;;;;5048515;28;20492;-66
2022/05/04 01:16:42;;;;;;;16.30;3.45;;;;;;;;;;5053423;28;20142;-66
2022/05/04 01:19:09;;;;;;;12.00;3.22;;;;;;;;;;5068161;28;20107;-66
2022/05/04 01:21:35;;;;;;;11.77;3.63;;;;;;;;;;5063690;28;20084;-66
2022/05/04 01:24:02;;;;;;;13.82;3.42;;;;;;;;;;5059889;28;20107;-66
2022/05/04 01:26:28;;;;;;;16.77;3.65;;;;;;;;;;5065377;28;20140;-66
2022/05/04 01:28:54;;;;;;;17.42;3.55;;;;;;;;;;5047093;28;20077;-66
2022/05/04 01:31:21;;;;;;;7.43;3.35;;;;;;;;;;5061536;28;20084;-66
2022/05/04 01:33:47;;;;;;;14.73;3.33;;;;;;;;;;5050635;28;20049;-66
2022/05/04 01:36:14;;;;;;;12.48;3.55;;;;;;;;;;5066424;28;20149;-66
2022/05/04 01:38:40;;;;;;;12.43;3.45;;;;;;;;;;5048723;28;20519;-66
2022/05/04 01:42:02;;;;;;;10.70;3.45;;;;;;;;;;5059954;28;20137;-66
2022/05/04 01:43:53;;;;;;;12.35;3.75;;;;;;;;;;5053497;28;20081;-66
2022/05/04 01:46:19;;;;;;;11.93;3.60;;;;;;;;;;5047312;28;20093;-66
2022/05/04 01:48:46;;;;;;;11.35;3.35;;;;;;;;;;5048190;28;20107;-66
2022/05/04 01:51:12;;;;;;;16.20;3.50;;;;;;;;;;5047199;28;20148;-66
2022/05/04 01:53:38;;;;;;;9.82;3.20;;;;;;;;;;5047603;28;20164;-66
2022/05/04 01:56:06;;;;;;;16.95;4.05;;;;;;;;;;5051593;28;20080;-66
2022/05/04 01:58:32;;;;;;;16.45;4.30;;;;;;;;;;5048308;28;20065;-66
2022/05/04 02:00:59;;;;;;;15.30;3.90;;;;;;;;;;5058217;28;20146;-66
2022/05/04 02:03:26;;;;;;;14.68;4.70;;;;;;;;;;5063178;28;20157;-66
2022/05/04 02:05:52;;;;;;;12.02;3.97;;;;;;;;;;5065750;28;20496;-66
2022/05/04 02:08:18;;;;;;;12.07;3.38;;;;;;;;;;5045751;28;20059;-66
2022/05/04 02:10:45;;;;;;;10.15;3.28;;;;;;;;;;5047524;28;20084;-66
2022/05/04 02:13:11;;;;;;;13.45;3.72;;;;;;;;;;5047140;28;20053;-66
2022/05/04 02:15:42;;;;;;;11.10;3.55;;;;;;;;;;5047609;28;20075;-65
2022/05/04 02:18:09;;;;;;;17.73;3.97;;;;;;;;;;5062355;28;20080;-66
2022/05/04 02:20:35;;;;;;;11.43;3.20;;;;;;;;;;5067401;28;20096;-66
2022/05/04 02:23:02;;;;;;;11.10;3.70;;;;;;;;;;5065774;28;20057;-66
2022/05/04 02:25:28;;;;;;;14.07;3.65;;;;;;;;;;5066987;28;20138;-66
2022/05/04 02:27:54;;;;;;;17.67;4.60;;;;;;;;;;5049411;28;20149;-66
2022/05/04 02:30:21;;;;;;;10.95;4.05;;;;;;;;;;5047061;28;20061;-66
2022/05/04 02:32:47;;;;;;;14.60;3.42;;;;;;;;;;5051177;28;20085;-66
2022/05/04 02:38:00;;;;;;;12.40;3.40;;;;;;;;;;5065590;28;20986;-66
2022/05/04 02:40:26;;;;;;;9.88;3.15;;;;;;;;;;5066351;28;20092;-66
2022/05/04 02:42:53;;;;;;;12.82;3.60;;;;;;;;;;5057609;28;20069;-66
2022/05/04 02:45:20;;;;;;;10.60;2.92;;;;;;;;;;5047649;28;20494;-66
2022/05/04 02:47:46;;;;;;;9.27;3.13;;;;;;;;;;5060359;28;20064;-63
2022/05/04 02:50:14;;;;;;;13.07;4.07;;;;;;;;;;5067189;28;20115;-65
2022/05/04 02:52:40;;;;;;;11.88;3.38;;;;;;;;;;5053379;28;20522;-66
2022/05/04 02:55:06;;;;;;;15.48;3.70;;;;;;;;;;5046893;28;20076;-66
2022/05/04 02:57:33;;;;;;;16.88;3.38;;;;;;;;;;5058807;28;20144;-66
2022/05/04 02:59:59;;;;;;;8.63;3.53;;;;;;;;;;5067463;28;20107;-66
2022/05/04 03:02:29;;;;;;;15.90;3.75;;;;;;;;;;5047706;28;20168;-66
2022/05/04 03:05:05;;;;;;;8.48;3.25;;;;;;;;;;5047064;28;20589;-66
2022/05/04 03:07:32;;;;;;;10.18;3.03;;;;;;;;;;5046253;28;20049;-66
2022/05/04 03:09:58;;;;;;;8.63;3.20;;;;;;;;;;5047092;28;20135;-66
2022/05/04 03:12:25;;;;;;;11.98;3.60;;;;;;;;;;5045601;28;20073;-66
2022/05/04 03:14:52;;;;;;;8.27;3.35;;;;;;;;;;5047231;28;20132;-66
2022/05/04 03:17:19;;;;;;;9.75;3.60;;;;;;;;;;5052836;28;20088;-66
2022/05/04 03:19:45;;;;;;;14.85;3.33;;;;;;;;;;5063311;28;20164;-66
2022/05/04 03:22:12;;;;;;;11.68;3.30;;;;;;;;;;5068385;28;20108;-66
2022/05/04 03:24:38;;;;;;;14.23;3.67;;;;;;;;;;5070498;28;20140;-66
2022/05/04 03:27:05;;;;;;;10.23;3.20;;;;;;;;;;5063791;28;20127;-66
2022/05/04 03:29:31;;;;;;;10.57;3.85;;;;;;;;;;5050108;28;20081;-66
2022/05/04 03:31:58;;;;;;;15.82;3.72;;;;;;;;;;5049136;28;20131;-66
2022/05/04 03:34:24;;;;;;;10.88;4.25;;;;;;;;;;5050623;28;20157;-66
2022/05/04 03:36:51;;;;;;;17.25;4.30;;;;;;;;;;5056755;28;20096;-66
2022/05/04 03:39:18;;;;;;;13.55;3.28;;;;;;;;;;5069594;28;20895;-66
2022/05/04 03:41:44;;;;;;;13.55;3.50;;;;;;;;;;5066407;28;20130;-66
2022/05/04 03:44:10;;;;;;;16.00;3.90;;;;;;;;;;5052443;28;20137;-66
2022/05/04 03:46:47;;;;;;;10.25;3.17;;;;;;;;;;5049363;28;20085;-66
2022/05/04 03:49:14;;;;;;;19.15;3.83;;;;;;;;;;5049908;28;20979;-66
2022/05/04 03:51:41;;;;;;;16.42;4.18;;;;;;;;;;5050356;28;20080;-66
2022/05/04 03:54:07;;;;;;;14.02;3.83;;;;;;;;;;5062207;28;20057;-66
2022/05/04 03:56:34;;;;;;;9.63;3.65;;;;;;;;;;5068014;28;20179;-66
2022/05/04 03:59:01;;;;;;;13.10;4.28;;;;;;;;;;5069627;28;20588;-66
2022/05/04 04:01:27;;;;;;;15.32;3.97;;;;;;;;;;5062391;28;20136;-66
2022/05/04 04:03:53;;;;;;;8.80;3.67;;;;;;;;;;5049522;28;20504;-66
2022/05/04 04:06:20;;;;;;;14.70;3.78;;;;;;;;;;5051376;28;20085;-66
2022/05/04 04:08:50;;;;;;;12.95;3.67;;;;;;;;;;5048957;28;20057;-66
2022/05/04 04:11:17;;;;;;;11.40;4.03;;;;;;;;;;5049644;28;20148;-67
2022/05/04 04:13:43;;;;;;;13.00;4.07;;;;;;;;;;5055802;28;20135;-66
2022/05/04 04:16:10;;;;;;;13.93;4.38;;;;;;;;;;5068567;28;20091;-66
2022/05/04 04:18:36;;;;;;;18.13;4.55;;;;;;;;;;5049059;28;20053;-66
2022/05/04 04:23:47;;;;;;;13.35;4.57;;;;;;;;;;5051615;28;20123;-66
2022/05/04 04:26:14;;;;;;;11.38;4.75;;;;;;;;;;5068214;28;20127;-66
2022/05/04 04:28:40;;;;;;;11.98;4.10;;;;;;;;;;5049275;28;20167;-66
2022/05/04 04:31:09;;;;;;;10.48;4.20;;;;;;;;;;5047393;28;20076;-66
2022/05/04 04:33:36;;;;;;;17.30;4.40;;;;;;;;;;5053735;28;20516;-66
2022/05/04 04:36:03;;;;;;;12.57;3.60;;;;;;;;;;5050238;28;20109;-66
2022/05/04 04:38:29;;;;;;;13.55;4.15;;;;;;;;;;5049119;28;20530;-66
2022/05/04 04:40:56;;;;;;;15.63;4.63;;;;;;;;;;5048869;28;20558;-66
2022/05/04 04:43:22;;;;;;;13.38;4.38;;;;;;;;;;5048599;28;20505;-66
2022/05/04 04:45:49;;;;;;;14.77;4.00;;;;;;;;;;5059519;28;20140;-66
2022/05/04 04:48:16;;;;;;;14.68;4.43;;;;;;;;;;5048389;28;20144;-66
2022/05/04 04:50:43;;;;;;;14.70;3.85;;;;;;;;;;5048875;28;20085;-66
2022/05/04 04:53:09;;;;;;;17.35;4.72;;;;;;;;;;5050394;28;20219;-66
2022/05/04 04:55:39;;;;;;;12.97;4.00;;;;;;;;;;5061684;28;20053;-66
2022/05/04 04:58:06;;;;;;;15.32;4.25;;;;;;;;;;5068150;28;20331;-66
2022/05/04 05:00:32;;;;;;;17.52;4.45;;;;;;;;;;5055132;28;20084;-66
2022/05/04 05:02:58;;;;;;;10.43;4.50;;;;;;;;;;5049177;28;20081;-66
2022/05/04 05:05:25;;;;;;;13.75;4.97;;;;;;;;;;5059931;28;20065;-66
2022/05/04 05:07:52;;;;;;;14.00;4.50;;;;;;;;;;5060271;28;20144;-66
2022/05/04 05:10:18;;;;;;;14.57;4.90;;;;;;;;;;5061856;28;20103;-66
2022/05/04 05:12:45;;;;;;;15.57;4.40;;;;;;;;;;5048479;28;20092;-66
2022/05/04 05:17:56;;;;;;;10.95;4.38;;;;;;;;;;5052784;28;20139;-66
2022/05/04 05:20:22;;;;;;;13.25;4.13;;;;;;;;;;5048734;28;20058;-66
2022/05/04 05:22:49;;;;;;;15.55;3.88;;;;;;;;;;5067878;28;20061;-66
2022/05/04 05:25:15;;;;;;;12.55;4.07;;;;;;;;;;5059259;28;20076;-66
2022/05/04 05:27:41;;;;;;;15.27;3.97;;;;;;;;;;5053436;28;20084;-66
2022/05/04 05:30:08;;;;;;;12.13;3.85;;;;;;;;;;5048108;28;20144;-66
2022/05/04 05:32:34;;;;;;;15.25;4.55;;;;;;;;;;5047460;28;20527;-66
2022/05/04 05:35:01;;;;;;;11.63;4.25;;;;;;;;;;5047091;28;20103;-66
2022/05/04 05:37:27;;;;;;;14.52;4.57;;;;;;;;;;5047743;28;20057;-66
2022/05/04 05:39:53;;;;;;;16.92;4.18;;;;;;;;;;5048031;28;20148;-66
2022/05/04 05:42:20;;;;;;;13.70;4.68;;;;;;;;;;5047952;28;20139;-66
2022/05/04 05:44:47;;;;;;;15.60;4.75;;;;;;;;;;5056501;28;20571;-66
2022/05/04 05:47:13;;;;;;;17.10;4.82;;;;;;;;;;5047862;28;20588;-66
2022/05/04 05:49:39;;;;;;;15.18;4.75;;;;;;;;;;5048030;28;20088;-66
2022/05/04 05:52:09;;;;;;;12.90;4.25;;;;;;;;;;5057455;28;20072;-66
2022/05/04 05:54:36;;;;;;;19.00;4.78;;;;;;;;;;5061029;28;20569;-66
2022/05/04 05:57:02;;;;;;;14.57;4.40;;;;;;;;;;5047143;28;20097;-66
2022/05/04 05:59:28;;;;;;;16.95;5.20;;;;;;;;;;5054399;28;20081;-66
2022/05/04 06:01:55;;;;;;;16.98;4.68;;;;;;;;;;5055631;28;20150;-66
2022/05/04 06:04:21;;;;;;;15.48;4.70;;;;;;;;;;5065160;28;20057;-66
2022/05/04 06:06:48;;;;;;;17.88;4.70;;;;;;;;;;5048198;28;20053;-66
2022/05/04 06:09:14;;;;;;;15.63;4.55;;;;;;;;;;5047699;28;20144;-66
2022/05/04 06:11:41;;;;;;;20.08;4.70;;;;;;;;;;5046454;28;20050;-66
2022/05/04 06:14:07;;;;;;;13.32;4.15;;;;;;;;;;5046587;28;20546;-66
2022/05/04 06:16:33;;;;;;;11.85;4.60;;;;;;;;;;5048230;28;20516;-66
2022/05/04 06:18:59;;;;;;;18.48;4.88;;;;;;;;;;5047638;28;20053;-66
2022/05/04 06:21:26;;;;;;;14.07;4.35;;;;;;;;;;5047308;28;20546;-65
2022/05/04 06:23:52;;;;;;;12.38;4.50;;;;;;;;;;5047211;28;20057;-66
2022/05/04 06:26:23;;;;;;;12.70;4.10;;;;;;;;;;5051388;28;20132;-65
2022/05/04 06:28:49;;;;;;;15.20;4.05;;;;;;;;;;5066310;28;20495;-65
2022/05/04 06:34:06;;;;;;;15.52;3.90;;;;;;;;;;5067143;28;20132;-64
2022/05/04 06:36:37;;;;;;;11.95;3.70;;;;;;;;;;5048855;28;20057;-64
2022/05/04 06:39:03;;;;;;;17.20;3.53;;;;;;;;;;5046700;28;20157;-63
2022/05/04 06:41:30;;;;;;;10.38;3.45;;;;;;;;;;5052391;28;20077;-63
2022/05/04 06:43:56;;;;;;;16.02;4.32;;;;;;;;;;5064388;28;20119;-63
2022/05/04 06:46:22;;;;;;;11.38;4.20;;;;;;;;;;5052716;28;20084;-62
2022/05/04 06:48:49;;;;;;;9.00;3.15;;;;;;;;;;5067762;28;20835;-63
2022/05/04 06:51:15;;;;;;;12.43;3.78;;;;;;;;;;5055343;28;20140;-63
2022/05/04 06:53:42;;;;;;;536.65;32.50;;;;;;;;;;5060519;28;20209;-63
2022/05/04 06:56:28;;;;;;;12.23;2.70;;;;;;;;;;5054206;28;20423;-63
2022/05/04 06:58:55;;;;;;;11.18;2.72;;;;;;;;;;5059275;28;20574;-63
2022/05/04 07:01:21;;;;;;;11.73;2.78;;;;;;;;;;5070030;28;20053;-63
2022/05/04 07:03:47;;;;;;;16.10;3.38;;;;;;;;;;5067226;28;20060;-62
2022/05/04 07:06:14;;;;;;;9.50;2.70;;;;;;;;;;5071450;28;20118;-63
2022/05/04 07:08:41;;;;;;;7.47;2.88;;;;;;;;;;5069811;28;20143;-63
2022/05/04 07:11:07;;;;;;;15.18;2.50;;;;;;;;;;5067006;28;20103;-64
2022/05/04 07:13:33;;;;;;;11.95;2.35;;;;;;;;;;5049436;28;20130;-65
2022/05/04 07:16:00;;;;;;;11.38;2.78;;;;;;;;;;5072715;28;20139;-62
2022/05/04 07:18:26;;;;;;;13.48;2.72;;;;;;;;;;5060885;28;20049;-63
2022/05/04 07:20:53;;;;;;;11.60;2.42;;;;;;;;;;5057652;28;20081;-63
2022/05/04 07:23:19;;;;;;;7.38;2.05;;;;;;;;;;5069342;28;20061;-62
2022/05/04 07:25:45;;;;;;;8.85;2.38;;;;;;;;;;5076737;28;20134;-62
2022/05/04 07:28:11;;;;;;;11.13;2.97;;;;;;;;;;5083672;28;20237;-62
2022/05/04 07:30:38;;;;;;;8.82;2.72;;;;;;;;;;5069946;28;20084;-62
2022/05/04 07:33:04;;;;;;;8.32;2.80;;;;;;;;;;5060495;28;21007;-61
2022/05/04 07:35:31;;;;;;;9.77;2.85;;;;;;;;;;5052813;28;20144;-63
2022/05/04 07:37:57;;;;;;;12.02;3.30;;;;;;;;;;5055495;28;20713;-62
2022/05/04 07:43:09;;;;;;;9.40;3.03;;;;;;;;;;5070057;28;20203;-62
2022/05/04 07:45:35;;;;;;;9.30;2.92;;;;;;;;;;5053350;28;20097;-63
2022/05/04 07:48:02;;;;;;;11.15;2.95;;;;;;;;;;5070159;28;20063;-63
2022/05/04 07:50:28;;;;;;;9.82;3.08;;;;;;;;;;5067899;28;20100;-63
2022/05/04 07:52:54;;;;;;;10.65;3.63;;;;;;;;;;5070227;28;20053;-63
2022/05/04 07:55:21;;;;;;;12.05;3.13;;;;;;;;;;5062455;28;20057;-62
2022/05/04 07:57:48;;;;;;;10.00;3.40;;;;;;;;;;5061223;28;20178;-62
2022/05/04 08:05:52;;;;;;;12.55;3.40;;;;;;;;;;5063547;28;20573;-62
2022/05/04 08:08:18;;;;;;;16.02;3.90;;;;;;;;;;5062937;28;20598;-62
2022/05/04 08:10:44;;;;;;;21.92;4.93;;;;;;;;;;5065458;28;20088;-62
2022/05/04 08:13:11;;;;;;;19.25;4.63;;;;;;;;;;5061188;28;20084;-62
2022/05/04 08:15:37;;;;;;;10.32;3.53;;;;;;;;;;5065213;28;20115;-62
2022/05/04 08:18:04;;;;;;;11.65;3.80;;;;;;;;;;5060354;28;20053;-63
2022/05/04 08:20:30;;;;;;;9.43;4.03;;;;;;;;;;5070052;28;20091;-62
2022/05/04 08:22:57;;;;;;;11.32;3.80;;;;;;;;;;5073996;28;20092;-63
2022/05/04 08:25:24;;;;;;;12.60;4.65;;;;;;;;;;5064575;28;20143;-63
2022/05/04 08:27:50;;;;;;;18.27;4.30;;;;;;;;;;5069533;28;20126;-63
2022/05/04 08:30:20;;;;;;;14.07;4.38;;;;;;;;;;5061857;28;20093;-62
2022/05/04 08:32:47;;;;;;;10.55;4.47;;;;;;;;;;5060872;28;20057;-63
2022/05/04 08:35:14;;;;;;;15.82;4.43;;;;;;;;;;5072218;28;20207;-62
2022/05/04 08:37:41;;;;;;;13.48;4.05;;;;;;;;;;5063984;28;20081;-62
2022/05/04 08:40:08;;;;;;;13.02;4.03;;;;;;;;;;5049950;28;20057;-62
2022/05/04 08:42:45;;;;;;;11.88;4.68;;;;;;;;;;5052920;28;20091;-62
2022/05/04 08:45:12;;;;;;;16.65;4.20;;;;;;;;;;5061730;28;20084;-62
2022/05/04 08:47:40;;;;;;;12.75;4.15;;;;;;;;;;5066878;28;20088;-62
2022/05/04 08:50:14;;;;;;;13.85;4.53;;;;;;;;;;5087922;28;20061;-62
2022/05/04 08:52:44;;;;;;;11.10;3.97;;;;;;;;;;5088276;28;20142;-62
2022/05/04 08:55:10;;;;;;;13.45;4.03;;;;;;;;;;5088579;28;20148;-62
2022/05/04 08:57:39;;;;;;;10.73;4.45;;;;;;;;;;5087509;28;20084;-62
2022/05/04 09:00:06;;;;;;;12.85;4.47;;;;;;;;;;5088877;28;20088;-62
2022/05/04 09:02:32;;;;;;;15.15;4.57;;;;;;;;;;5088186;28;20080;-62
2022/05/04 09:05:11;;;;;;;19.63;6.00;;;;;;;;;;5087544;28;20056;-62
2022/05/04 09:07:38;;;;;;;19.65;4.00;;;;;;;;;;5082591;28;20139;-62
2022/05/04 09:10:06;;;;;;;10.98;4.15;;;;;;;;;;5057171;28;20084;-62
2022/05/04 09:12:35;;;;;;;15.77;4.45;;;;;;;;;;5068345;28;20099;-62
2022/05/04 09:15:01;;;;;;;12.77;4.15;;;;;;;;;;5068724;28;20176;-63
2022/05/04 09:17:28;;;;;;;9.93;4.10;;;;;;;;;;5068055;28;20149;-62
2022/05/04 09:22:40;;;;;;;11.73;4.53;;;;;;;;;;5068085;28;20080;-63
2022/05/04 09:25:13;;;;;;;14.43;5.13;;;;;;;;;;5067845;28;20103;-62
2022/05/04 09:27:39;;;;;;;12.15;4.68;;;;;;;;;;5068267;28;20095;-62
2022/05/04 09:30:06;;;;;;;14.25;4.65;;;;;;;;;;5067742;28;20119;-62
2022/05/04 09:32:32;;;;;;;13.55;5.22;;;;;;;;;;5068420;28;20594;-62
2022/05/04 09:35:01;;;;;;;12.00;4.50;;;;;;;;;;5068445;28;20076;-62
2022/05/04 09:45:52;;;;;;;10.85;5.00;;;;;;;;;;5067759;28;20541;-63
2022/05/04 09:48:26;;;;;;;11.30;4.63;;;;;;;;;;5067961;28;20053;-61
2022/05/04 09:50:57;;;;;;;11.63;4.47;;;;;;;;;;5068814;28;20077;-62
2022/05/04 09:53:27;;;;;;;10.43;4.57;;;;;;;;;;5067203;28;20172;-61
2022/05/04 09:55:55;;;;;;;12.98;5.13;;;;;;;;;;5048053;28;20566;-62
2022/05/04 09:58:28;;;;;;;58.90;7.38;;;;;;;;;;5047210;28;20089;-62
2022/05/04 10:00:55;;;;;;;13.70;4.65;;;;;;;;;;5049425;28;20103;-62
2022/05/04 10:03:22;;;;;;;11.65;4.68;;;;;;;;;;5047971;28;20089;-61
2022/05/04 10:05:48;;;;;;;16.55;5.50;;;;;;;;;;5047253;28;20081;-61
2022/05/04 10:08:15;;;;;;;19.13;5.60;;;;;;;;;;5063154;28;20053;-61
2022/05/04 10:10:42;;;;;;;19.42;5.22;;;;;;;;;;5067211;28;20084;-61
2022/05/04 10:13:09;;;;;;;13.95;4.72;;;;;;;;;;5067327;28;20088;-62
2022/05/04 10:15:38;;;;;;;15.02;5.50;;;;;;;;;;5067409;28;20106;-62
2022/05/04 10:18:14;;;;;;;17.88;5.45;;;;;;;;;;5067583;28;20085;-62
2022/05/04 10:20:45;;;;;;;13.38;5.53;;;;;;;;;;5055950;28;20150;-62
2022/05/04 10:23:14;;;;;;;12.82;5.65;;;;;;;;;;5048284;28;20061;-62
2022/05/04 10:25:42;;;;;;;14.55;5.70;;;;;;;;;;5047526;28;20109;-62
2022/05/04 10:28:10;;;;;;;17.40;5.78;;;;;;;;;;5054280;28;20586;-62
2022/05/04 10:30:46;;;;;;;10.88;4.88;;;;;;;;;;5071211;28;20084;-62
2022/05/04 10:33:13;;;;;;;18.02;5.47;;;;;;;;;;5068439;28;20550;-62
2022/05/04 10:35:44;;;;;;;11.15;5.32;;;;;;;;;;5051445;28;20088;-60
2022/05/04 10:38:10;;;;;;;16.30;5.65;;;;;;;;;;5051949;28;20081;-61
2022/05/04 10:40:37;;;;;;;14.50;5.45;;;;;;;;;;5066961;28;20069;-60
2022/05/04 10:43:12;;;;;;;12.38;5.20;;;;;;;;;;5050225;28;20135;-61
2022/05/04 10:45:39;;;;;;;19.50;6.20;;;;;;;;;;5051914;28;20512;-62
2022/05/04 10:48:20;;;;;;;15.23;6.38;;;;;;;;;;5049348;28;20085;-61
2022/05/04 10:50:56;;;;;;;27.40;6.75;;;;;;;;;;5066082;28;20083;-60
2022/05/04 10:53:25;;;;;;;17.38;6.15;;;;;;;;;;5070907;28;20084;-61
2022/05/04 10:55:55;;;;;;;16.58;5.55;;;;;;;;;;5071158;28;20570;-60
2022/05/04 10:58:34;;;;;;;15.90;6.30;;;;;;;;;;5068957;28;20608;-60
2022/05/04 11:01:02;;;;;;;14.65;5.72;;;;;;;;;;5071113;28;20088;-60
2022/05/04 11:03:35;;;;;;;17.05;6.15;;;;;;;;;;5079301;28;20075;-60
2022/05/04 11:06:09;;;;;;;19.20;8.00;;;;;;;;;;5090970;28;20100;-61
2022/05/04 11:08:45;;;;;;;14.13;6.53;;;;;;;;;;5090557;28;20149;-61
2022/05/04 11:11:12;;;;;;;15.30;5.45;;;;;;;;;;5090699;28;20879;-62
2022/05/04 11:13:42;;;;;;;18.65;7.05;;;;;;;;;;5069408;28;20084;-63
2022/05/04 11:16:09;;;;;;;16.85;6.05;;;;;;;;;;5070250;28;20076;-61
2022/05/04 11:18:35;;;;;;;17.23;6.18;;;;;;;;;;5069821;28;20483;-61
2022/05/04 11:21:05;;;;;;;15.85;6.75;;;;;;;;;;5069554;28;20053;-61
2022/05/04 11:23:31;;;;;;;14.40;6.03;;;;;;;;;;5068937;28;20056;-61
2022/05/04 11:25:58;;;;;;;17.80;6.97;;;;;;;;;;5070196;28;20545;-61
2022/05/04 11:28:25;;;;;;;14.07;6.38;;;;;;;;;;5070643;28;20512;-61
2022/05/04 11:30:54;;;;;;;14.00;6.88;;;;;;;;;;5070526;28;20510;-61
2022/05/04 11:33:21;;;;;;;20.10;6.57;;;;;;;;;;5070289;28;20063;-63
2022/05/04 11:35:53;;;;;;;10.13;5.43;;;;;;;;;;5069961;28;20060;-61
2022/05/04 11:38:23;;;;;;;19.10;5.60;;;;;;;;;;5069570;28;20060;-62
2022/05/04 11:40:50;;;;;;;18.23;6.30;;;;;;;;;;5069494;28;20053;-61
2022/05/04 11:43:25;;;;;;;16.42;6.15;;;;;;;;;;5069278;28;20110;-61
2022/05/04 11:45:51;;;;;;;14.40;6.15;;;;;;;;;;5071852;28;20114;-61
2022/05/04 11:48:21;;;;;;;15.63;6.03;;;;;;;;;;5069136;28;20055;-61
2022/05/04 11:50:48;;;;;;;15.02;5.82;;;;;;;;;;5070152;28;20143;-61
2022/05/04 11:53:14;;;;;;;16.05;6.40;;;;;;;;;;5068864;28;20172;-61
2022/05/04 11:55:41;;;;;;;12.40;6.15;;;;;;;;;;5069694;28;20136;-61
2022/05/04 11:58:09;;;;;;;15.80;6.20;;;;;;;;;;5069445;28;20053;-61
2022/05/04 12:00:35;;;;;;;;;;;;;;;;;;5069762;28;20091;-62
2022/05/04 12:03:03;;;;;;;13.73;5.97;;;;;;;;;;5067513;28;45493;-62
2022/05/04 12:05:29;;;;;;;11.82;5.28;;;;;;;;;;5069551;28;20120;-61
2022/05/04 12:07:55;;;;;;;14.38;5.50;;;;;;;;;;5069645;28;20160;-61
2022/05/04 12:10:22;;;;;;;14.95;6.88;;;;;;;;;;5069684;28;20098;-61
2022/05/04 12:12:48;;;;;;;18.13;5.50;;;;;;;;;;5069442;28;20048;-61
2022/05/04 12:15:16;;;;;;;9.73;4.82;;;;;;;;;;5069579;28;20156;-62
2022/05/04 12:17:43;;;;;;;12.63;5.67;;;;;;;;;;5069348;28;20518;-61
2022/05/04 12:20:10;;;;;;;11.95;5.28;;;;;;;;;;5069111;28;20303;-62
2022/05/04 12:22:36;;;;;;;11.52;5.47;;;;;;;;;;5068539;28;20907;-62
2022/05/04 12:25:06;;;;;;;13.65;5.18;;;;;;;;;;5068505;28;20059;-62
2022/05/04 12:27:34;;;;;;;13.73;5.55;;;;;;;;;;5068657;28;20065;-61
2022/05/04 12:35:54;;;;;;;12.80;5.57;;;;;;;;;;5069910;28;20537;-61
2022/05/04 12:38:21;;;;;;;15.30;5.30;;;;;;;;;;5067864;28;20076;-61
2022/05/04 12:40:49;;;;;;;18.30;5.78;;;;;;;;;;5068832;28;20188;-61
2022/05/04 12:43:22;;;;;;;13.68;5.50;;;;;;;;;;5068138;28;20053;-61
2022/05/04 12:45:49;;;;;;;11.73;4.68;;;;;;;;;;5068029;28;20061;-61
2022/05/04 12:48:20;;;;;;;12.57;4.85;;;;;;;;;;5068584;28;20111;-62
2022/05/04 12:50:47;;;;;;;17.17;5.35;;;;;;;;;;5068498;28;20085;-61
2022/05/04 12:53:15;;;;;;;9.73;4.45;;;;;;;;;;5068198;28;20057;-62
2022/05/04 12:58:27;;;;;;;14.43;4.75;;;;;;;;;;5068842;28;20091;-61
2022/05/04 13:00:53;;;;;;;12.73;4.80;;;;;;;;;;5068523;28;20145;-63
2022/05/04 13:03:19;;;;;;;11.93;4.90;;;;;;;;;;5065014;28;20057;-62
2022/05/04 13:05:46;;;;;;;12.50;4.68;;;;;;;;;;5067593;28;20095;-62
2022/05/04 13:08:12;;;;;;;11.80;4.53;;;;;;;;;;5066560;28;20528;-62
2022/05/04 13:10:38;;;;;;;29.52;6.05;;;;;;;;;;5068909;28;20614;-62
2022/05/04 13:13:05;;;;;;;11.25;4.63;;;;;;;;;;5067794;28;20142;-61
2022/05/04 13:15:33;;;;;;;12.03;4.10;;;;;;;;;;5068212;28;20052;-62
2022/05/04 13:18:00;;;;;;;8.75;4.18;;;;;;;;;;5068300;28;20560;-61
2022/05/04 13:20:26;;;;;;;10.07;4.35;;;;;;;;;;5068450;28;20910;-61
2022/05/04 13:22:53;;;;;;;11.13;4.88;;;;;;;;;;5068216;28;20545;-63
2022/05/04 13:25:19;;;;;;;16.30;5.70;;;;;;;;;;5067846;28;20393;-60
2022/05/04 13:27:45;;;;;;;16.83;5.28;;;;;;;;;;5067382;28;20539;-60
2022/05/04 13:30:12;;;;;;;16.02;5.00;;;;;;;;;;5067830;28;20072;-62
2022/05/04 13:32:38;;;;;;;13.63;5.45;;;;;;;;;;5068043;28;20144;-60
2022/05/04 13:35:05;;;;;;;15.48;5.40;;;;;;;;;;5066625;28;20077;-61
2022/05/04 13:37:31;;;;;;;14.27;6.25;;;;;;;;;;5068282;28;20087;-60
2022/05/04 13:39:57;;;;;;;13.77;5.32;;;;;;;;;;5067696;28;21038;-60
2022/05/04 13:42:24;;;;;;;13.57;5.65;;;;;;;;;;5068136;28;20104;-62
2022/05/04 13:44:50;;;;;;;11.75;4.72;;;;;;;;;;5068212;28;20152;-62
2022/05/04 13:47:17;;;;;;;11.30;4.82;;;;;;;;;;5066836;28;20896;-60
2022/05/04 13:49:43;;;;;;;13.57;5.53;;;;;;;;;;5066520;28;20053;-60
2022/05/04 13:54:55;;;;;;;13.05;5.65;;;;;;;;;;5068113;28;20140;-64
2022/05/04 13:57:22;;;;;;;11.15;5.32;;;;;;;;;;5066977;28;20483;-62
2022/05/04 13:59:48;;;;;;;11.18;4.95;;;;;;;;;;5066728;28;20134;-62
2022/05/04 14:02:15;;;;;;;16.52;5.32;;;;;;;;;;5068365;28;20108;-62
2022/05/04 14:04:41;;;;;;;14.38;5.50;;;;;;;;;;5066710;28;20152;-61
2022/05/04 14:07:07;;;;;;;11.60;5.18;;;;;;;;;;5066468;28;20053;-61
2022/05/04 14:09:34;;;;;;;14.70;5.95;;;;;;;;;;5067792;28;20516;-61
2022/05/04 14:12:01;;;;;;;15.02;5.65;;;;;;;;;;5067882;28;20144;-60
2022/05/04 14:17:13;;;;;;;13.88;6.05;;;;;;;;;;5065276;28;20136;-60
2022/05/04 14:19:39;;;;;;;12.15;5.20;;;;;;;;;;5067427;28;20100;-61
2022/05/04 14:22:06;;;;;;;15.10;6.07;;;;;;;;;;5066974;28;20084;-60
2022/05/04 14:24:32;;;;;;;13.13;5.38;;;;;;;;;;5068237;28;20073;-60
2022/05/04 14:26:58;;;;;;;15.85;5.95;;;;;;;;;;5067615;28;20088;-61
2022/05/04 14:29:25;;;;;;;14.35;5.60;;;;;;;;;;5067616;28;20628;-60
2022/05/04 14:31:51;;;;;;;16.92;5.60;;;;;;;;;;5067166;28;20084;-61
2022/05/04 14:34:17;;;;;;;15.20;6.25;;;;;;;;;;5067410;28;20049;-61
2022/05/04 14:36:44;;;;;;;11.25;5.20;;;;;;;;;;5067097;28;20053;-61
2022/05/04 14:39:10;;;;;;;10.95;5.05;;;;;;;;;;5067384;28;20057;-62
2022/05/04 14:41:37;;;;;;;19.20;5.55;;;;;;;;;;5065483;28;20614;-62
2022/05/04 14:44:03;;;;;;;18.52;6.13;;;;;;;;;;5067125;28;20084;-62
2022/05/04 14:46:29;;;;;;;12.80;5.75;;;;;;;;;;5067545;28;20597;-61
2022/05/04 14:49:03;;;;;;;13.57;5.85;;;;;;;;;;5066467;28;20593;-61
2022/05/04 14:51:30;;;;;;;16.58;5.82;;;;;;;;;;5066602;28;20882;-61
2022/05/04 14:53:56;;;;;;;11.65;5.45;;;;;;;;;;5067150;28;20581;-62
2022/05/04 14:56:22;;;;;;;20.75;13.95;;;;;;;;;;5066434;28;20084;-61
2022/05/04 14:58:49;;;;;;;14.25;5.75;;;;;;;;;;5067056;28;20068;-60
2022/05/04 15:01:15;;;;;;;14.93;5.68;;;;;;;;;;5067349;28;20056;-61
2022/05/04 15:06:27;;;;;;;16.48;7.07;;;;;;;;;;5066286;28;20061;-61
2022/05/04 15:08:54;;;;;;;18.05;6.68;;;;;;;;;;5067148;28;20069;-61
2022/05/04 15:11:24;;;;;;;17.13;6.45;;;;;;;;;;5067157;28;20562;-63
2022/05/04 15:13:51;;;;;;;15.07;6.35;;;;;;;;;;5066952;28;20053;-63
2022/05/04 15:16:18;;;;;;;13.48;6.00;;;;;;;;;;5069769;28;20080;-62
2022/05/04 15:18:44;;;;;;;16.52;7.63;;;;;;;;;;5069643;28;20071;-62